createdAt,value
2023-04-16T00:01:46.713Z,8.80
2023-04-16T00:04:15.712Z,8.90
2023-04-16T00:06:44.627Z,9.00
2023-04-16T00:09:13.430Z,9.00
2023-04-16T00:11:43.668Z,9.00
2023-04-16T00:14:12.592Z,9.00
2023-04-16T00:16:42.757Z,9.10
2023-04-16T00:19:13.996Z,9.20
2023-04-16T00:21:42.964Z,9.20
2023-04-16T00:24:11.883Z,9.00
2023-04-16T00:26:41.091Z,9.00
2023-04-16T00:29:11.622Z,9.10
2023-04-16T00:31:40.769Z,9.20
2023-04-16T00:34:09.780Z,9.00
2023-04-16T00:36:38.640Z,9.20
2023-04-16T00:39:07.854Z,9.50
2023-04-16T00:41:38.775Z,9.50
2023-04-16T00:44:07.954Z,9.30
2023-04-16T00:46:39.939Z,9.20
2023-04-16T00:49:09.521Z,9.10
2023-04-16T00:51:38.744Z,9.00
2023-04-16T00:54:07.948Z,9.10
2023-04-16T00:56:37.895Z,9.10
2023-04-16T00:59:07.260Z,9.50
2023-04-16T01:01:36.323Z,9.60
2023-04-16T01:04:08.366Z,9.60
2023-04-16T01:06:37.620Z,9.50
2023-04-16T01:09:07.194Z,9.40
2023-04-16T01:11:37.234Z,9.50
2023-04-16T01:14:07.885Z,9.50
2023-04-16T01:16:36.805Z,9.30
2023-04-16T01:19:07.496Z,9.30
2023-04-16T01:21:38.192Z,9.30
2023-04-16T01:24:07.369Z,9.40
2023-04-16T01:26:36.196Z,9.20
2023-04-16T01:29:05.124Z,9.20
2023-04-16T01:31:34.835Z,9.20
2023-04-16T01:34:07.790Z,9.30
2023-04-16T01:36:38.804Z,9.30
2023-04-16T01:39:11.650Z,9.30
2023-04-16T01:41:41.119Z,9.20
2023-04-16T01:44:10.106Z,9.30
2023-04-16T01:46:39.670Z,9.20
2023-04-16T01:49:09.207Z,9.20
2023-04-16T01:51:39.831Z,9.30
2023-04-16T01:54:09.117Z,9.40
2023-04-16T01:56:38.604Z,9.50
2023-04-16T01:59:07.883Z,9.50
2023-04-16T02:01:42.516Z,9.50
2023-04-16T02:04:11.975Z,9.50
2023-04-16T02:06:42.576Z,9.40
2023-04-16T02:09:11.798Z,9.40
2023-04-16T02:11:41.844Z,9.70
2023-04-16T02:14:10.792Z,9.70
2023-04-16T02:16:39.943Z,9.30
2023-04-16T02:19:19.067Z,9.40
2023-04-16T02:21:49.472Z,9.60
2023-04-16T02:24:18.535Z,9.50
2023-04-16T02:26:47.651Z,9.60
2023-04-16T02:29:19.607Z,9.60
2023-04-16T02:31:55.054Z,9.70
2023-04-16T02:34:24.218Z,9.80
2023-04-16T02:36:55.148Z,9.90
2023-04-16T02:39:24.335Z,10.00
2023-04-16T02:41:55.432Z,10.00
2023-04-16T02:44:24.421Z,9.70
2023-04-16T02:46:53.334Z,9.80
2023-04-16T02:49:22.713Z,9.90
2023-04-16T02:51:53.018Z,10.10
2023-04-16T02:54:22.013Z,9.90
2023-04-16T02:56:51.478Z,9.70
2023-04-16T02:59:20.522Z,9.60
2023-04-16T03:01:49.834Z,9.80
2023-04-16T03:04:18.950Z,9.50
2023-04-16T03:06:47.846Z,9.40
2023-04-16T03:09:17.992Z,9.50
2023-04-16T03:11:46.850Z,9.40
2023-04-16T03:14:15.637Z,9.70
2023-04-16T03:16:44.499Z,9.70
2023-04-16T03:19:13.299Z,9.90
2023-04-16T03:21:42.323Z,10.10
2023-04-16T03:24:11.505Z,10.00
2023-04-16T03:26:41.836Z,10.00
2023-04-16T03:29:12.653Z,10.00
2023-04-16T03:31:41.763Z,10.00
2023-04-16T03:34:10.793Z,10.10
2023-04-16T03:36:41.949Z,9.90
2023-04-16T03:39:10.960Z,10.00
2023-04-16T03:41:41.473Z,10.10
2023-04-16T03:44:10.808Z,10.10
2023-04-16T03:46:39.782Z,10.10
2023-04-16T03:49:09.351Z,10.20
2023-04-16T03:51:38.706Z,10.20
2023-04-16T03:54:07.821Z,10.10
2023-04-16T03:56:36.539Z,9.80
2023-04-16T03:59:06.918Z,9.70
2023-04-16T04:01:36.050Z,9.60
2023-04-16T04:04:06.763Z,9.40
2023-04-16T04:06:35.830Z,9.40
2023-04-16T04:09:04.860Z,9.10
2023-04-16T04:11:36.208Z,9.10
2023-04-16T04:14:07.548Z,9.10
2023-04-16T04:16:36.577Z,9.20
2023-04-16T04:19:06.431Z,9.20
2023-04-16T04:21:35.463Z,9.00
2023-04-16T04:24:06.506Z,9.10
2023-04-16T04:26:36.351Z,9.20
2023-04-16T04:29:06.832Z,9.30
2023-04-16T04:31:36.793Z,9.20
2023-04-16T04:34:05.950Z,9.30
2023-04-16T04:36:34.911Z,9.40
2023-04-16T04:39:04.096Z,9.00
2023-04-16T04:41:33.224Z,8.90
2023-04-16T04:44:02.684Z,8.90
2023-04-16T04:46:33.054Z,9.00
2023-04-16T04:49:02.221Z,9.10
2023-04-16T04:51:31.947Z,9.00
2023-04-16T04:54:01.448Z,9.00
2023-04-16T04:56:31.673Z,9.20
2023-04-16T04:59:00.882Z,9.20
2023-04-16T05:01:38.428Z,9.30
2023-04-16T05:04:07.818Z,9.30
2023-04-16T05:06:36.916Z,9.40
2023-04-16T05:09:06.493Z,9.50
2023-04-16T05:11:35.609Z,9.40
2023-04-16T05:14:04.661Z,9.40
2023-04-16T05:16:37.877Z,9.40
2023-04-16T05:19:06.893Z,9.50
2023-04-16T05:21:36.391Z,9.60
2023-04-16T05:24:05.368Z,9.30
2023-04-16T05:26:34.362Z,9.10
2023-04-16T05:29:03.260Z,8.90
2023-04-16T05:31:32.336Z,8.90
2023-04-16T05:34:02.808Z,8.90
2023-04-16T05:36:32.774Z,9.10
2023-04-16T05:39:01.887Z,9.00
2023-04-16T05:41:32.160Z,9.30
2023-04-16T05:44:01.264Z,9.50
2023-04-16T05:46:30.232Z,9.50
2023-04-16T05:48:59.169Z,9.50
2023-04-16T05:51:29.552Z,9.40
2023-04-16T05:53:58.578Z,9.60
2023-04-16T05:56:27.501Z,9.50
2023-04-16T05:58:56.337Z,9.40
2023-04-16T06:01:25.584Z,9.40
2023-04-16T06:03:54.711Z,9.30
2023-04-16T06:06:23.674Z,9.00
2023-04-16T06:08:53.938Z,9.00
2023-04-16T06:11:22.807Z,9.20
2023-04-16T06:13:52.041Z,9.00
2023-04-16T06:16:21.208Z,8.80
2023-04-16T06:18:50.417Z,8.90
2023-04-16T06:21:19.663Z,8.90
2023-04-16T06:23:48.648Z,8.90
2023-04-16T06:26:18.973Z,8.90
2023-04-16T06:28:48.122Z,8.90
2023-04-16T06:31:17.159Z,9.00
2023-04-16T06:33:45.995Z,9.00
2023-04-16T06:36:14.778Z,8.80
2023-04-16T06:38:43.800Z,8.60
2023-04-16T06:41:12.872Z,8.70
2023-04-16T06:43:43.339Z,8.90
2023-04-16T06:46:12.514Z,8.90
2023-04-16T06:48:41.611Z,8.80
2023-04-16T06:51:13.363Z,8.90
2023-04-16T06:53:44.482Z,9.00
2023-04-16T06:56:13.468Z,9.20
2023-04-16T06:58:43.791Z,9.30
2023-04-16T07:01:12.796Z,9.30
2023-04-16T07:03:42.137Z,9.40
2023-04-16T07:06:11.822Z,9.50
2023-04-16T07:08:40.653Z,9.20
2023-04-16T07:11:10.094Z,9.00
2023-04-16T07:13:39.235Z,8.90
2023-04-16T07:16:09.951Z,8.80
2023-04-16T07:18:39.530Z,8.90
2023-04-16T07:21:08.415Z,8.90
2023-04-16T07:23:37.535Z,9.10
2023-04-16T07:26:06.533Z,9.30
2023-04-16T07:28:35.595Z,9.40
2023-04-16T07:31:06.796Z,9.10
2023-04-16T07:33:38.505Z,9.20
2023-04-16T07:36:07.966Z,9.00
2023-04-16T07:38:36.843Z,8.90
2023-04-16T07:41:06.344Z,9.00
2023-04-16T07:43:38.908Z,8.90
2023-04-16T07:46:08.524Z,9.20
2023-04-16T07:48:40.050Z,9.10
2023-04-16T07:51:09.608Z,9.20
2023-04-16T07:53:41.167Z,9.10
2023-04-16T07:56:11.077Z,9.20
2023-04-16T07:58:48.302Z,9.30
2023-04-16T08:01:17.580Z,9.10
2023-04-16T08:03:48.859Z,9.30
2023-04-16T08:06:18.367Z,9.20
2023-04-16T08:08:47.395Z,9.50
2023-04-16T08:11:20.180Z,9.70
2023-04-16T08:13:54.300Z,9.80
2023-04-16T08:16:23.293Z,9.80
2023-04-16T08:18:53.616Z,10.00
2023-04-16T08:21:22.959Z,10.10
2023-04-16T08:23:51.842Z,10.20
2023-04-16T08:26:20.752Z,10.00
2023-04-16T08:28:49.671Z,10.10
2023-04-16T08:31:18.529Z,10.30
2023-04-16T08:33:47.400Z,10.20
2023-04-16T08:36:17.474Z,9.80
2023-04-16T08:38:46.989Z,9.70
2023-04-16T08:41:16.157Z,9.50
2023-04-16T08:43:48.959Z,9.60
2023-04-16T08:46:20.979Z,9.60
2023-04-16T08:48:53.231Z,9.60
2023-04-16T08:51:25.252Z,10.00
2023-04-16T08:53:55.989Z,9.80
2023-04-16T08:56:26.154Z,9.80
2023-04-16T08:58:56.651Z,10.00
2023-04-16T09:01:27.006Z,9.90
2023-04-16T09:03:57.183Z,9.80
2023-04-16T09:06:29.238Z,9.90
2023-04-16T09:09:00.360Z,9.60
2023-04-16T09:11:31.796Z,9.70
2023-04-16T09:14:01.855Z,9.70
2023-04-16T09:16:34.795Z,9.80
2023-04-16T09:19:03.952Z,10.00
2023-04-16T09:21:34.142Z,10.10
2023-04-16T09:24:03.551Z,9.70
2023-04-16T09:26:34.564Z,9.90
2023-04-16T09:29:03.736Z,9.70
2023-04-16T09:31:32.539Z,9.60
2023-04-16T09:34:06.101Z,9.80
2023-04-16T09:36:37.236Z,9.80
2023-04-16T09:39:06.326Z,9.90
2023-04-16T09:41:39.472Z,9.90
2023-04-16T09:44:10.027Z,9.90
2023-04-16T09:46:43.075Z,10.10
2023-04-16T09:49:14.715Z,10.30
2023-04-16T09:51:47.323Z,10.40
2023-04-16T09:54:16.266Z,10.20
2023-04-16T09:56:46.526Z,10.10
2023-04-16T09:59:18.965Z,10.10
2023-04-16T10:01:49.513Z,10.30
2023-04-16T10:04:19.054Z,10.50
2023-04-16T10:07:04.801Z,10.40
2023-04-16T10:09:38.299Z,10.00
2023-04-16T10:12:07.650Z,9.90
2023-04-16T10:14:36.936Z,10.10
2023-04-16T10:17:06.483Z,10.00
2023-04-16T10:19:36.505Z,10.20
2023-04-16T10:22:07.365Z,10.30
2023-04-16T10:24:36.728Z,9.90
2023-04-16T10:27:06.506Z,9.80
2023-04-16T10:29:36.074Z,9.60
2023-04-16T10:32:05.955Z,9.40
2023-04-16T10:34:35.153Z,9.50
2023-04-16T10:37:04.262Z,9.70
2023-04-16T10:39:38.503Z,9.60
2023-04-16T10:42:11.787Z,9.50
2023-04-16T10:44:44.306Z,9.70
2023-04-16T10:47:15.236Z,9.80
2023-04-16T10:49:44.690Z,9.60
2023-04-16T10:52:17.149Z,9.80
2023-04-16T10:54:47.889Z,10.10
2023-04-16T10:57:18.824Z,10.20
2023-04-16T10:59:49.768Z,10.40
2023-04-16T11:02:20.000Z,10.20
2023-04-16T11:04:50.219Z,10.20
2023-04-16T11:07:21.277Z,10.20
2023-04-16T11:09:57.815Z,10.10
2023-04-16T11:12:29.113Z,10.10
2023-04-16T11:15:02.177Z,10.20
2023-04-16T11:17:33.834Z,10.40
2023-04-16T11:20:05.031Z,10.50
2023-04-16T11:22:48.457Z,10.70
2023-04-16T11:25:23.034Z,10.90
2023-04-16T11:27:52.615Z,10.80
2023-04-16T11:30:31.117Z,10.90
2023-04-16T11:33:00.906Z,10.90
2023-04-16T11:35:29.776Z,10.60
2023-04-16T11:37:59.248Z,10.30
2023-04-16T11:40:36.810Z,10.40
2023-04-16T11:43:15.517Z,10.60
2023-04-16T11:45:59.410Z,10.40
2023-04-16T11:48:47.512Z,10.70
2023-04-16T11:51:16.517Z,11.00
2023-04-16T11:53:53.001Z,10.90
2023-04-16T11:56:30.910Z,10.60
2023-04-16T11:59:10.776Z,10.30
2023-04-16T12:01:41.699Z,10.20
2023-04-16T12:04:11.107Z,10.30
2023-04-16T12:06:40.449Z,10.30
2023-04-16T12:09:25.414Z,10.30
2023-04-16T12:11:55.637Z,10.40
2023-04-16T12:14:24.984Z,10.60
2023-04-16T12:16:53.896Z,10.50
2023-04-16T12:19:22.853Z,10.40
2023-04-16T12:21:52.324Z,10.30
2023-04-16T12:24:22.728Z,10.50
2023-04-16T12:26:57.722Z,10.60
2023-04-16T12:29:28.133Z,10.80
2023-04-16T12:31:57.214Z,11.00
2023-04-16T12:34:48.072Z,10.90
2023-04-16T12:37:14.978Z,11.20
2023-04-16T12:39:45.111Z,11.40
2023-04-16T12:42:16.225Z,11.40
2023-04-16T12:44:45.893Z,11.20
2023-04-16T12:47:15.097Z,11.10
2023-04-16T12:49:44.610Z,11.00
2023-04-16T12:52:15.138Z,11.20
2023-04-16T12:54:44.106Z,11.10
2023-04-16T12:57:13.516Z,11.20
2023-04-16T12:59:43.968Z,11.20
2023-04-16T13:02:13.046Z,11.00
2023-04-16T13:04:42.197Z,11.10
2023-04-16T13:07:11.388Z,11.10
2023-04-16T13:09:41.051Z,10.80
2023-04-16T13:12:09.868Z,11.00
2023-04-16T13:14:38.839Z,11.10
2023-04-16T13:17:09.170Z,11.40
2023-04-16T13:19:38.326Z,11.10
2023-04-16T13:22:08.278Z,11.00
2023-04-16T13:24:39.472Z,10.90
2023-04-16T13:27:09.156Z,10.80
2023-04-16T13:29:38.081Z,10.80
2023-04-16T13:32:08.915Z,11.00
2023-04-16T13:34:37.906Z,11.30
2023-04-16T13:37:07.052Z,11.50
2023-04-16T13:39:35.931Z,11.50
2023-04-16T13:42:05.026Z,11.40
2023-04-16T13:44:33.770Z,11.40
2023-04-16T13:47:03.648Z,11.20
2023-04-16T13:49:36.133Z,11.00
2023-04-16T13:52:05.415Z,11.30
2023-04-16T13:54:34.760Z,11.60
2023-04-16T13:57:03.688Z,11.30
2023-04-16T13:59:32.639Z,11.50
2023-04-16T14:02:01.685Z,11.70
2023-04-16T14:04:31.379Z,11.40
2023-04-16T14:07:01.662Z,11.30
2023-04-16T14:09:30.801Z,11.60
2023-04-16T14:11:59.732Z,11.50
2023-04-16T14:14:28.527Z,11.70
2023-04-16T14:17:00.532Z,11.80
2023-04-16T14:19:29.531Z,11.60
2023-04-16T14:22:00.943Z,11.50
2023-04-16T14:24:32.528Z,11.50
2023-04-16T14:27:01.547Z,11.80
2023-04-16T14:29:32.633Z,11.80
2023-04-16T14:32:01.489Z,11.80
2023-04-16T14:34:30.576Z,12.20
2023-04-16T14:36:59.548Z,12.20
2023-04-16T14:39:28.574Z,12.30
2023-04-16T14:41:59.154Z,12.30
2023-04-16T14:44:28.084Z,12.20
2023-04-16T14:46:58.007Z,12.20
2023-04-16T14:49:29.948Z,12.30
2023-04-16T14:52:16.176Z,12.10
2023-04-16T14:54:48.126Z,12.50
2023-04-16T14:57:19.424Z,12.80
2023-04-16T14:59:48.478Z,12.90
2023-04-16T15:02:19.182Z,12.90
2023-04-16T15:04:48.143Z,12.90
2023-04-16T15:07:17.048Z,12.50
2023-04-16T15:09:46.058Z,11.90
2023-04-16T15:12:19.129Z,11.80
2023-04-16T15:14:48.036Z,12.00
2023-04-16T15:17:18.491Z,12.20
2023-04-16T15:19:47.785Z,12.50
2023-04-16T15:22:18.456Z,12.00
2023-04-16T15:24:47.261Z,12.00
2023-04-16T15:27:17.738Z,12.10
2023-04-16T15:29:49.661Z,12.20
2023-04-16T15:32:18.613Z,12.30
2023-04-16T15:34:47.553Z,12.30
2023-04-16T15:37:16.796Z,12.40
2023-04-16T15:39:45.873Z,12.50
2023-04-16T15:42:14.791Z,12.50
2023-04-16T15:44:43.614Z,12.50
2023-04-16T15:47:13.981Z,12.60
2023-04-16T15:49:43.163Z,12.70
2023-04-16T15:52:12.870Z,12.90
2023-04-16T15:54:41.987Z,12.60
2023-04-16T15:57:10.865Z,12.50
2023-04-16T15:59:39.973Z,12.10
2023-04-16T16:02:08.820Z,12.10
2023-04-16T16:04:39.194Z,12.00
2023-04-16T16:07:08.321Z,12.00
2023-04-16T16:09:37.222Z,11.90
2023-04-16T16:12:06.344Z,12.00
2023-04-16T16:14:35.386Z,12.10
2023-04-16T16:17:04.221Z,12.00
2023-04-16T16:19:34.393Z,12.00
2023-04-16T16:22:05.899Z,11.90
2023-04-16T16:24:34.791Z,11.90
2023-04-16T16:27:03.786Z,11.70
2023-04-16T16:29:32.797Z,11.80
2023-04-16T16:32:01.764Z,12.10
2023-04-16T16:34:30.897Z,12.30
2023-04-16T16:36:59.835Z,12.10
2023-04-16T16:39:30.315Z,12.20
2023-04-16T16:41:59.534Z,12.10
2023-04-16T16:44:28.508Z,12.10
2023-04-16T16:47:07.036Z,11.90
2023-04-16T16:49:37.348Z,11.80
2023-04-16T16:52:07.691Z,12.20
2023-04-16T16:54:37.924Z,12.50
2023-04-16T16:57:06.816Z,12.60
2023-04-16T16:59:35.623Z,12.50
2023-04-16T17:02:04.514Z,12.20
2023-04-16T17:04:33.472Z,12.00
2023-04-16T17:07:02.351Z,12.00
2023-04-16T17:09:31.289Z,12.00
2023-04-16T17:12:01.628Z,12.10
2023-04-16T17:14:30.751Z,12.00
2023-04-16T17:16:59.856Z,12.10
2023-04-16T17:19:28.915Z,11.90
2023-04-16T17:21:57.916Z,11.90
2023-04-16T17:24:26.798Z,12.10
2023-04-16T17:26:55.997Z,12.20
2023-04-16T17:29:26.709Z,12.10
2023-04-16T17:31:55.779Z,12.10
2023-04-16T17:34:24.631Z,12.00
2023-04-16T17:36:53.495Z,12.10
2023-04-16T17:39:22.454Z,11.90
2023-04-16T17:41:57.218Z,12.10
2023-04-16T17:44:28.106Z,12.20
2023-04-16T17:46:57.135Z,12.10
2023-04-16T17:49:26.007Z,11.90
2023-04-16T17:51:58.009Z,11.90
2023-04-16T17:54:26.870Z,12.20
2023-04-16T17:56:56.050Z,12.50
2023-04-16T17:59:24.958Z,12.60
2023-04-16T18:01:56.236Z,12.70
2023-04-16T18:04:25.381Z,12.60
2023-04-16T18:06:54.273Z,12.60
2023-04-16T18:09:23.040Z,12.70
2023-04-16T18:11:51.941Z,12.50
2023-04-16T18:14:21.560Z,12.00
2023-04-16T18:16:50.878Z,11.70
2023-04-16T18:19:21.296Z,11.70
2023-04-16T18:21:50.220Z,11.50
2023-04-16T18:24:19.008Z,11.60
2023-04-16T18:26:48.260Z,11.40
2023-04-16T18:29:18.133Z,11.20
2023-04-16T18:31:47.446Z,11.50
2023-04-16T18:34:16.504Z,11.80
2023-04-16T18:36:46.758Z,12.00
2023-04-16T18:39:16.148Z,11.80
2023-04-16T18:41:47.937Z,11.70
2023-04-16T18:44:17.805Z,11.50
2023-04-16T18:46:46.817Z,11.70
2023-04-16T18:49:15.746Z,11.80
2023-04-16T18:51:46.020Z,11.70
2023-04-16T18:54:14.947Z,11.50
2023-04-16T18:56:43.865Z,11.50
2023-04-16T18:59:12.935Z,11.40
2023-04-16T19:01:41.943Z,11.60
2023-04-16T19:04:11.063Z,11.50
2023-04-16T19:06:42.714Z,11.50
2023-04-16T19:09:13.426Z,11.40
2023-04-16T19:11:42.441Z,11.40
2023-04-16T19:14:11.357Z,11.40
2023-04-16T19:16:40.522Z,11.30
2023-04-16T19:19:09.660Z,11.20
2023-04-16T19:21:40.091Z,11.20
2023-04-16T19:24:09.123Z,11.20
2023-04-16T19:26:39.459Z,11.20
2023-04-16T19:29:08.484Z,11.20
2023-04-16T19:31:37.711Z,11.10
2023-04-16T19:34:06.722Z,11.20
2023-04-16T19:36:35.584Z,11.30
2023-04-16T19:39:04.914Z,11.30
2023-04-16T19:41:33.894Z,11.30
2023-04-16T19:44:04.280Z,11.30
2023-04-16T19:46:33.062Z,11.60
2023-04-16T19:49:01.936Z,11.90
2023-04-16T19:51:31.220Z,11.80
2023-04-16T19:54:00.063Z,11.50
2023-04-16T19:56:29.070Z,11.10
2023-04-16T19:58:57.927Z,11.20
2023-04-16T20:01:39.852Z,11.50
2023-04-16T20:04:22.414Z,11.70
2023-04-16T20:06:51.540Z,11.40
2023-04-16T20:09:20.940Z,11.40
2023-04-16T20:11:49.906Z,11.30
2023-04-16T20:14:18.992Z,11.10
2023-04-16T20:16:49.368Z,11.10
2023-04-16T20:19:18.389Z,11.20
2023-04-16T20:21:47.218Z,11.40
2023-04-16T20:24:16.177Z,11.40
2023-04-16T20:26:45.094Z,11.30
2023-04-16T20:29:14.823Z,11.40
2023-04-16T20:31:44.485Z,11.50
2023-04-16T20:34:14.672Z,11.60
2023-04-16T20:36:43.508Z,11.60
2023-04-16T20:39:12.838Z,11.30
2023-04-16T20:41:44.200Z,11.20
2023-04-16T20:44:18.261Z,11.00
2023-04-16T20:46:49.663Z,11.10
2023-04-16T20:49:20.047Z,11.10
2023-04-16T20:51:48.933Z,11.00
2023-04-16T20:54:17.909Z,10.90
2023-04-16T20:56:47.314Z,11.10
2023-04-16T20:59:17.150Z,11.30
2023-04-16T21:01:47.771Z,11.20
2023-04-16T21:04:16.871Z,11.20
2023-04-16T21:06:47.238Z,11.20
2023-04-16T21:09:16.579Z,11.20
2023-04-16T21:11:45.588Z,11.40
2023-04-16T21:14:14.802Z,11.60
2023-04-16T21:16:43.691Z,11.40
2023-04-16T21:19:12.693Z,11.30
2023-04-16T21:21:41.974Z,11.50
2023-04-16T21:24:12.212Z,11.60
2023-04-16T21:26:41.172Z,11.50
2023-04-16T21:29:10.226Z,11.70
2023-04-16T21:31:39.173Z,11.70
2023-04-16T21:34:08.035Z,11.70
2023-04-16T21:36:36.853Z,11.80
2023-04-16T21:39:05.830Z,11.50
2023-04-16T21:41:36.109Z,11.20
2023-04-16T21:44:04.902Z,11.20
2023-04-16T21:46:33.650Z,11.20
2023-04-16T21:49:02.516Z,11.00
2023-04-16T21:51:31.527Z,10.90
2023-04-16T21:54:00.297Z,10.80
2023-04-16T21:56:29.168Z,11.00
2023-04-16T21:58:59.648Z,11.10
2023-04-16T22:01:28.634Z,11.40
2023-04-16T22:03:57.834Z,11.70
2023-04-16T22:06:27.121Z,11.90
2023-04-16T22:08:58.878Z,11.90
2023-04-16T22:11:27.604Z,11.60
2023-04-16T22:13:57.972Z,11.40
2023-04-16T22:16:28.786Z,11.20
2023-04-16T22:18:57.638Z,11.20
2023-04-16T22:21:26.703Z,11.20
2023-04-16T22:23:55.580Z,11.10
2023-04-16T22:26:24.596Z,11.10
2023-04-16T22:28:53.500Z,11.20
2023-04-16T22:31:22.301Z,11.10
2023-04-16T22:33:52.803Z,10.90
2023-04-16T22:36:22.200Z,10.80
2023-04-16T22:38:51.006Z,10.70
2023-04-16T22:41:19.971Z,10.70
2023-04-16T22:43:50.578Z,10.60
2023-04-16T22:46:21.374Z,10.50
2023-04-16T22:48:51.814Z,10.40
2023-04-16T22:51:24.530Z,10.50
2023-04-16T22:53:53.481Z,10.50
2023-04-16T22:56:22.436Z,10.50
2023-04-16T22:58:51.275Z,10.50
2023-04-16T23:01:20.409Z,10.60
2023-04-16T23:03:49.552Z,10.70
2023-04-16T23:06:18.594Z,10.50
2023-04-16T23:08:48.822Z,10.60
2023-04-16T23:11:17.808Z,10.60
2023-04-16T23:13:46.750Z,10.60
2023-04-16T23:16:15.588Z,10.50
2023-04-16T23:18:44.451Z,10.70
2023-04-16T23:21:13.152Z,10.70
2023-04-16T23:23:42.014Z,10.70
2023-04-16T23:26:12.279Z,11.00
2023-04-16T23:28:41.018Z,11.20
2023-04-16T23:31:10.029Z,11.30
2023-04-16T23:33:38.867Z,11.40
2023-04-16T23:36:08.578Z,11.40
2023-04-16T23:38:37.359Z,11.10
2023-04-16T23:41:06.550Z,11.00
2023-04-16T23:43:36.988Z,10.90
2023-04-16T23:46:05.923Z,10.80
2023-04-16T23:48:34.863Z,10.80
2023-04-16T23:51:03.810Z,11.00
2023-04-16T23:53:32.681Z,11.00
2023-04-16T23:56:01.619Z,11.00
2023-04-16T23:58:30.290Z,11.00
